Time;durP1;ratioP1;P1;durP2;ratioP2;P2;SDS_P1;SDS_P2;PMS_P1;PMS_P2;Temp;Humidity;BMP_temperature;BMP_pressure;BME280_temperature;BME280_humidity;BME280_pressure;Samples;Min_cycle;Max_cycle;Signal;HPM_P1;HPM_P2
2021/09/03 00:00:46;;;;;;;8.38;6.18;;;12.00;99.90;;;;;;5046136;28;20280;-71
2021/09/03 00:03:12;;;;;;;7.28;5.30;;;12.00;99.90;;;;;;5045964;28;20285;-71
2021/09/03 00:05:38;;;;;;;7.55;5.30;;;11.90;99.90;;;;;;5045741;28;20244;-69
2021/09/03 00:08:04;;;;;;;8.90;5.45;;;11.90;99.90;;;;;;5046203;28;20170;-71
2021/09/03 00:10:29;;;;;;;6.55;4.72;;;11.90;99.90;;;;;;5046505;28;20206;-68
2021/09/03 00:12:55;;;;;;;6.03;4.90;;;11.90;99.90;;;;;;5046563;28;20531;-68
2021/09/03 00:15:21;;;;;;;8.82;4.80;;;11.90;99.90;;;;;;5027096;28;20210;-71
2021/09/03 00:17:46;;;;;;;9.40;4.47;;;11.80;99.90;;;;;;5027903;28;20178;-69
2021/09/03 00:20:14;;;;;;;5.75;4.70;;;11.70;99.90;;;;;;5046195;28;20616;-70
2021/09/03 00:22:40;;;;;;;8.43;5.10;;;11.70;99.90;;;;;;5028195;28;20204;-70
2021/09/03 00:25:07;;;;;;;8.85;5.13;;;11.70;99.90;;;;;;5045429;28;20617;-70
2021/09/03 00:27:33;;;;;;;6.78;4.82;;;11.70;99.90;;;;;;5045999;28;20240;-70
2021/09/03 00:29:59;;;;;;;5.68;4.45;;;11.70;99.90;;;;;;5027741;28;20684;-71
2021/09/03 00:32:24;;;;;;;8.40;4.95;;;11.70;99.90;;;;;;5045401;28;20724;-70
2021/09/03 00:34:50;;;;;;;9.90;5.20;;;11.70;99.90;;;;;;5044756;28;20288;-71
2021/09/03 00:37:15;;;;;;;8.50;5.25;;;11.70;99.90;;;;;;5045249;28;20224;-70
2021/09/03 00:39:41;;;;;;;5.15;4.32;;;11.70;99.90;;;;;;5027942;28;20190;-71
2021/09/03 00:42:10;;;;;;;8.68;5.40;;;11.60;99.90;;;;;;5045433;28;20185;-70
2021/09/03 00:44:37;;;;;;;7.97;5.15;;;11.60;99.90;;;;;;5044197;28;20278;-70
2021/09/03 00:47:03;;;;;;;9.35;5.07;;;11.60;99.90;;;;;;5044974;28;20190;-70
2021/09/03 00:49:28;;;;;;;7.07;5.15;;;11.50;99.90;;;;;;5045008;28;20213;-71
2021/09/03 00:51:54;;;;;;;8.07;5.55;;;11.60;99.90;;;;;;5044853;28;20228;-70
2021/09/03 00:54:20;;;;;;;7.75;5.10;;;11.60;99.90;;;;;;5026391;28;20631;-70
2021/09/03 00:56:46;;;;;;;7.05;4.88;;;11.60;99.90;;;;;;5027023;28;20297;-70
2021/09/03 00:59:11;;;;;;;8.25;5.53;;;11.50;99.90;;;;;;5045241;28;20216;-70
2021/09/03 01:01:37;;;;;;;8.57;5.20;;;11.50;99.90;;;;;;5025288;28;20186;-69
2021/09/03 01:04:03;;;;;;;7.03;5.35;;;11.50;99.90;;;;;;5043923;28;20197;-70
2021/09/03 01:06:28;;;;;;;7.47;5.20;;;11.50;99.90;;;;;;5044548;28;20178;-70
2021/09/03 01:08:54;;;;;;;7.80;5.05;;;11.50;99.90;;;;;;5026722;28;20681;-70
2021/09/03 01:11:20;;;;;;;7.88;5.57;;;11.50;99.90;;;;;;5026514;28;20531;-71
2021/09/03 01:13:45;;;;;;;6.43;4.95;;;11.50;99.90;;;;;;5026212;28;20275;-71
2021/09/03 01:16:11;;;;;;;6.78;5.13;;;11.50;99.90;;;;;;5043225;28;20202;-70
2021/09/03 01:18:37;;;;;;;7.78;5.38;;;11.40;99.90;;;;;;5044660;28;20822;-71
2021/09/03 01:21:03;;;;;;;7.22;5.07;;;11.40;99.90;;;;;;5044499;28;20196;-68
2021/09/03 01:23:28;;;;;;;6.90;4.97;;;11.30;99.90;;;;;;5044416;28;20552;-70
2021/09/03 01:25:54;;;;;;;9.20;5.47;;;11.30;99.90;;;;;;5043828;28;20575;-69
2021/09/03 01:28:20;;;;;;;7.05;5.10;;;11.30;99.90;;;;;;5044100;28;20189;-70
2021/09/03 01:30:45;;;;;;;5.80;4.97;;;11.40;99.90;;;;;;5044548;28;20633;-68
2021/09/03 01:33:11;;;;;;;6.75;4.57;;;11.30;99.90;;;;;;5043888;28;20347;-69
2021/09/03 01:35:37;;;;;;;7.63;5.00;;;11.30;99.90;;;;;;5043553;28;20201;-69
2021/09/03 01:38:06;;;;;;;9.68;5.50;;;11.30;99.90;;;;;;5044100;28;20201;-70
2021/09/03 01:40:31;;;;;;;7.25;5.65;;;11.20;99.90;;;;;;5044122;28;20193;-70
2021/09/03 01:42:57;;;;;;;9.52;4.85;;;11.20;99.90;;;;;;5044511;28;20216;-69
2021/09/03 01:45:23;;;;;;;10.68;4.93;;;11.30;99.90;;;;;;5025377;28;20292;-71
2021/09/03 01:47:48;;;;;;;6.93;5.13;;;11.20;99.90;;;;;;5043988;28;20223;-70
2021/09/03 01:50:14;;;;;;;9.80;5.47;;;11.10;99.90;;;;;;5044145;28;20264;-70
2021/09/03 01:52:40;;;;;;;9.23;5.57;;;11.10;99.90;;;;;;5026171;28;20174;-68
2021/09/03 01:55:06;;;;;;;8.48;5.63;;;11.10;99.90;;;;;;5043536;28;20568;-69
2021/09/03 01:57:32;;;;;;;6.72;4.80;;;11.10;99.90;;;;;;5044415;28;20724;-68
2021/09/03 01:59:58;;;;;;;8.23;5.15;;;11.00;99.90;;;;;;5044022;28;20213;-67
2021/09/03 02:02:23;;;;;;;7.72;5.20;;;11.00;99.90;;;;;;5043949;28;20185;-71
2021/09/03 02:04:49;;;;;;;6.75;5.03;;;11.00;99.90;;;;;;5042991;28;20339;-69
2021/09/03 02:07:15;;;;;;;8.85;5.72;;;10.90;99.90;;;;;;5043417;28;20736;-69
2021/09/03 02:09:40;;;;;;;7.80;5.00;;;10.90;99.90;;;;;;5044025;28;20210;-70
2021/09/03 02:12:06;;;;;;;6.53;4.22;;;11.00;99.90;;;;;;5042042;28;20190;-71
2021/09/03 02:14:32;;;;;;;8.57;4.78;;;11.00;99.90;;;;;;5025329;28;20232;-70
2021/09/03 02:16:57;;;;;;;6.50;4.18;;;10.90;99.90;;;;;;5043286;28;20178;-68
2021/09/03 02:19:23;;;;;;;7.07;4.35;;;10.90;99.90;;;;;;5043898;28;20189;-70
2021/09/03 02:21:49;;;;;;;6.40;4.65;;;10.80;99.90;;;;;;5043980;28;20231;-69
2021/09/03 02:24:14;;;;;;;7.28;4.53;;;10.80;99.90;;;;;;5025161;28;20187;-70
2021/09/03 02:26:41;;;;;;;5.82;3.97;;;10.80;99.90;;;;;;5043949;28;20680;-69
2021/09/03 02:29:06;;;;;;;7.50;3.97;;;10.60;99.90;;;;;;5043231;28;20256;-70
2021/09/03 02:31:32;;;;;;;5.40;4.40;;;10.60;99.90;;;;;;5044043;28;20210;-70
2021/09/03 02:33:58;;;;;;;6.85;4.55;;;10.50;99.90;;;;;;5024841;28;20185;-71
2021/09/03 02:36:23;;;;;;;5.55;4.18;;;10.60;99.90;;;;;;5025868;28;20289;-71
2021/09/03 02:38:49;;;;;;;5.60;4.10;;;10.60;99.90;;;;;;5025720;28;20185;-69
2021/09/03 02:41:14;;;;;;;6.47;4.13;;;10.70;99.90;;;;;;5043629;28;20183;-70
2021/09/03 02:43:40;;;;;;;5.55;4.15;;;10.70;99.90;;;;;;5025598;28;20210;-68
2021/09/03 02:46:06;;;;;;;5.05;3.63;;;10.70;99.90;;;;;;5042686;28;20214;-70
2021/09/03 02:48:31;;;;;;;6.22;3.67;;;10.60;99.90;;;;;;5043221;28;20195;-70
2021/09/03 02:50:57;;;;;;;6.20;4.45;;;10.60;99.90;;;;;;5043868;28;20705;-70
2021/09/03 02:53:23;;;;;;;5.65;4.38;;;10.50;99.90;;;;;;5043212;28;20238;-71
2021/09/03 02:55:48;;;;;;;5.28;3.67;;;10.60;99.90;;;;;;5042887;28;20194;-69
2021/09/03 02:58:14;;;;;;;5.72;4.28;;;10.50;99.90;;;;;;5043830;28;20183;-71
2021/09/03 03:00:39;;;;;;;4.83;3.40;;;10.40;99.90;;;;;;5025500;28;20680;-69
2021/09/03 03:03:07;;;;;;;5.17;3.90;;;10.30;99.90;;;;;;5025848;28;20190;-69
2021/09/03 03:05:33;;;;;;;4.20;3.78;;;10.40;99.90;;;;;;5042504;28;20194;-71
2021/09/03 03:07:58;;;;;;;7.25;4.15;;;10.50;99.90;;;;;;5025347;28;20251;-70
2021/09/03 03:10:24;;;;;;;5.22;3.83;;;10.40;99.90;;;;;;5043318;28;20217;-70
2021/09/03 03:12:53;;;;;;;5.43;3.58;;;10.40;99.90;;;;;;5043899;28;20181;-69
2021/09/03 03:15:20;;;;;;;4.73;3.80;;;10.30;99.90;;;;;;5042335;28;20634;-70
2021/09/03 03:17:46;;;;;;;5.78;4.18;;;10.40;99.90;;;;;;5042524;28;20178;-71
2021/09/03 03:20:11;;;;;;;6.97;4.53;;;10.40;99.90;;;;;;5043039;28;20178;-69
2021/09/03 03:22:37;;;;;;;5.87;4.10;;;10.50;99.90;;;;;;5043085;28;20174;-70
2021/09/03 03:25:04;;;;;;;4.80;3.97;;;10.50;99.90;;;;;;5044281;28;20390;-69
2021/09/03 03:27:29;;;;;;;6.40;4.20;;;10.50;99.90;;;;;;5046840;28;20177;-70
2021/09/03 03:29:55;;;;;;;5.13;3.50;;;10.40;99.90;;;;;;5046327;28;20206;-70
2021/09/03 03:32:20;;;;;;;4.67;3.90;;;10.50;99.90;;;;;;5046685;28;20209;-70
2021/09/03 03:34:46;;;;;;;4.63;3.88;;;10.60;99.90;;;;;;5027609;28;20228;-69
2021/09/03 03:37:12;;;;;;;5.33;3.63;;;10.60;99.90;;;;;;5046495;28;20662;-69
2021/09/03 03:39:37;;;;;;;5.63;3.50;;;10.50;99.90;;;;;;5046564;28;20182;-69
2021/09/03 03:42:03;;;;;;;4.73;3.30;;;10.50;99.90;;;;;;5028491;28;20190;-70
2021/09/03 03:44:29;;;;;;;3.85;3.38;;;10.60;99.90;;;;;;5045432;28;20256;-69
2021/09/03 03:46:54;;;;;;;4.93;3.93;;;10.60;99.90;;;;;;5046133;28;20185;-69
2021/09/03 03:49:20;;;;;;;6.60;4.37;;;10.60;99.90;;;;;;5046031;28;20218;-69
2021/09/03 03:51:45;;;;;;;7.57;4.18;;;10.60;99.90;;;;;;5046141;28;20261;-70
2021/09/03 03:54:11;;;;;;;5.90;4.53;;;10.60;99.90;;;;;;5045383;28;20190;-70
2021/09/03 03:56:37;;;;;;;8.52;3.95;;;10.60;99.90;;;;;;5046220;28;20379;-68
2021/09/03 03:59:02;;;;;;;6.60;4.50;;;10.70;99.90;;;;;;5028027;28;20281;-69
2021/09/03 04:01:28;;;;;;;6.90;5.20;;;10.70;99.90;;;;;;5046137;28;20193;-70
2021/09/03 04:03:53;;;;;;;4.80;4.25;;;10.70;99.90;;;;;;5045117;28;20182;-70
2021/09/03 04:06:19;;;;;;;5.25;4.57;;;10.70;99.90;;;;;;5045957;28;20201;-71
2021/09/03 04:08:45;;;;;;;4.80;4.18;;;10.60;99.90;;;;;;5045871;28;20206;-70
2021/09/03 04:11:10;;;;;;;9.88;5.53;;;10.70;99.90;;;;;;5045850;28;20213;-70
2021/09/03 04:13:36;;;;;;;8.77;4.07;;;10.60;99.90;;;;;;5045605;28;20267;-68
2021/09/03 04:16:02;;;;;;;5.82;4.30;;;10.40;99.90;;;;;;5045341;28;20210;-68
2021/09/03 04:18:27;;;;;;;4.53;4.13;;;10.30;99.90;;;;;;5045867;28;20201;-70
2021/09/03 04:20:53;;;;;;;5.33;4.80;;;10.30;99.90;;;;;;5045657;28;20186;-69
2021/09/03 04:23:19;;;;;;;4.67;3.67;;;10.20;99.90;;;;;;5045752;28;20598;-68
2021/09/03 04:25:44;;;;;;;4.73;4.13;;;10.20;99.90;;;;;;5026965;28;20236;-69
2021/09/03 04:28:10;;;;;;;4.27;3.80;;;10.00;99.90;;;;;;5045405;28;20276;-70
2021/09/03 04:30:35;;;;;;;6.60;4.57;;;10.00;99.90;;;;;;5027516;28;20501;-70
2021/09/03 04:33:01;;;;;;;4.50;4.10;;;10.00;99.90;;;;;;5045521;28;20580;-70
2021/09/03 04:35:27;;;;;;;4.70;4.20;;;10.10;99.90;;;;;;5044317;28;20249;-67
2021/09/03 04:37:53;;;;;;;12.50;4.47;;;10.10;99.90;;;;;;5044977;28;20190;-68
2021/09/03 04:40:19;;;;;;;5.23;4.23;;;10.10;99.90;;;;;;5045438;28;20193;-68
2021/09/03 04:42:45;;;;;;;5.30;4.37;;;10.20;99.90;;;;;;5045015;28;20292;-70
2021/09/03 04:45:12;;;;;;;4.47;3.93;;;10.20;99.90;;;;;;5044245;28;20304;-68
2021/09/03 04:47:38;;;;;;;4.77;4.00;;;10.10;99.90;;;;;;5045400;28;20189;-69
2021/09/03 04:50:07;;;;;;;4.40;3.60;;;10.00;99.90;;;;;;5026888;28;20267;-70
2021/09/03 04:52:33;;;;;;;7.67;4.57;;;10.00;99.90;;;;;;5026902;28;20600;-68
2021/09/03 04:54:59;;;;;;;5.40;4.70;;;9.90;99.90;;;;;;5044276;28;20301;-69
2021/09/03 04:57:24;;;;;;;4.10;3.70;;;9.90;99.90;;;;;;5044925;28;20213;-67
2021/09/03 04:59:50;;;;;;;3.90;3.50;;;9.90;99.90;;;;;;5044931;28;20233;-70
2021/09/03 05:02:17;;;;;;;5.37;4.20;;;9.80;99.90;;;;;;5044564;28;20186;-70
2021/09/03 05:04:43;;;;;;;5.17;4.57;;;9.80;99.90;;;;;;5042746;28;20635;-68
2021/09/03 05:07:09;;;;;;;5.23;4.40;;;9.90;99.90;;;;;;5044109;28;20250;-68
2021/09/03 05:09:35;;;;;;;5.53;4.27;;;10.00;99.90;;;;;;5027190;28;20255;-70
2021/09/03 05:12:00;;;;;;;5.63;4.37;;;10.10;99.90;;;;;;5045634;28;20193;-69
2021/09/03 05:14:26;;;;;;;5.60;4.70;;;10.20;99.90;;;;;;5045090;28;20701;-69
2021/09/03 05:16:52;;;;;;;7.65;4.72;;;10.30;99.90;;;;;;5046652;28;20182;-69
2021/09/03 05:19:17;;;;;;;4.97;4.47;;;10.40;99.90;;;;;;5045966;28;20277;-69
2021/09/03 05:21:43;;;;;;;5.40;4.03;;;10.60;99.90;;;;;;5046015;28;20178;-68
2021/09/03 05:24:09;;;;;;;5.73;4.47;;;10.70;99.90;;;;;;5044995;28;20814;-70
2021/09/03 05:26:34;;;;;;;4.75;4.25;;;10.80;99.90;;;;;;5046190;28;20488;-70
2021/09/03 05:29:00;;;;;;;5.13;4.63;;;10.80;99.90;;;;;;5046016;28;20263;-69
2021/09/03 05:31:26;;;;;;;6.18;4.70;;;10.90;99.90;;;;;;5045969;28;20222;-70
2021/09/03 05:33:51;;;;;;;9.50;4.93;;;11.00;99.90;;;;;;5045209;28;20286;-70
2021/09/03 05:36:17;;;;;;;8.07;5.38;;;11.20;99.90;;;;;;5045925;28;20746;-69
2021/09/03 05:38:43;;;;;;;6.83;5.33;;;11.10;99.90;;;;;;5045836;28;20268;-69
2021/09/03 05:41:08;;;;;;;8.98;5.40;;;11.10;99.90;;;;;;5045533;28;20232;-70
2021/09/03 05:43:34;;;;;;;6.68;5.43;;;11.20;99.90;;;;;;5045930;28;20182;-70
2021/09/03 05:46:00;;;;;;;7.13;5.07;;;11.20;99.90;;;;;;5044273;28;20677;-68
2021/09/03 05:48:25;;;;;;;10.30;5.28;;;11.50;99.90;;;;;;5044787;28;20634;-71
2021/09/03 05:50:51;;;;;;;7.47;4.97;;;11.50;99.90;;;;;;5045152;28;20261;-69
2021/09/03 05:53:17;;;;;;;7.95;5.20;;;11.50;99.90;;;;;;5045568;28;20740;-69
2021/09/03 05:55:42;;;;;;;7.85;5.47;;;11.50;99.90;;;;;;5044746;28;20206;-68
2021/09/03 05:58:08;;;;;;;7.72;5.70;;;11.60;99.90;;;;;;5045374;28;20190;-70
2021/09/03 06:00:33;;;;;;;7.88;5.53;;;11.60;99.90;;;;;;5045339;28;20224;-70
2021/09/03 06:02:59;;;;;;;9.30;5.95;;;11.80;99.90;;;;;;5045453;28;20217;-69
2021/09/03 06:05:25;;;;;;;8.98;5.78;;;11.90;99.90;;;;;;5044426;28;20197;-67
2021/09/03 06:07:51;;;;;;;9.80;6.45;;;12.10;99.90;;;;;;5045433;28;20193;-71
2021/09/03 06:10:17;;;;;;;8.18;6.43;;;12.30;99.90;;;;;;5045796;28;20233;-69
2021/09/03 06:12:42;;;;;;;10.07;7.35;;;12.60;99.90;;;;;;5045437;28;20190;-68
2021/09/03 06:15:09;;;;;;;11.88;7.70;;;12.70;99.90;;;;;;5044980;28;20205;-68
2021/09/03 06:17:37;;;;;;;9.75;7.88;;;12.90;99.90;;;;;;5045339;28;20180;-66
2021/09/03 06:20:15;;;;;;;10.98;7.70;;;13.00;99.90;;;;;;5045260;28;20265;-69
2021/09/03 06:22:41;;;;;;;12.35;6.72;;;13.20;99.90;;;;;;5044263;28;20268;-69
2021/09/03 06:25:09;;;;;;;8.77;7.18;;;13.20;99.90;;;;;;5043585;28;20217;-68
2021/09/03 06:27:34;;;;;;;10.07;6.50;;;13.30;99.90;;;;;;5043995;28;20186;-70
2021/09/03 06:30:00;;;;;;;8.05;6.80;;;13.40;99.90;;;;;;5044165;28;20225;-70
2021/09/03 06:32:28;;;;;;;9.05;6.55;;;13.50;99.90;;;;;;5044076;28;20171;-68
2021/09/03 06:34:59;;;;;;;8.13;6.57;;;13.50;99.90;;;;;;5042810;28;20232;-69
2021/09/03 06:37:27;;;;;;;8.32;7.28;;;13.50;99.90;;;;;;5043902;28;20589;-70
2021/09/03 06:39:54;;;;;;;9.10;6.65;;;13.60;99.90;;;;;;5043626;28;20178;-68
2021/09/03 06:42:20;;;;;;;8.10;6.55;;;13.70;99.90;;;;;;5044178;28;20178;-70
2021/09/03 06:44:46;;;;;;;8.80;6.35;;;13.80;99.90;;;;;;5024969;28;20263;-68
2021/09/03 06:47:13;;;;;;;8.73;7.10;;;14.00;99.90;;;;;;5043792;28;20194;-69
2021/09/03 06:49:40;;;;;;;9.55;7.00;;;14.20;99.90;;;;;;5042997;28;20206;-70
2021/09/03 06:52:07;;;;;;;8.57;6.32;;;14.30;99.90;;;;;;5043704;28;20541;-71
2021/09/03 06:54:34;;;;;;;8.00;6.40;;;14.40;99.90;;;;;;5042883;28;20213;-69
2021/09/03 06:57:00;;;;;;;8.10;6.85;;;14.60;99.90;;;;;;5043889;28;20638;-70
2021/09/03 06:59:27;;;;;;;8.07;6.68;;;14.70;99.90;;;;;;5046378;28;20356;-68
2021/09/03 07:01:53;;;;;;;11.02;6.80;;;14.70;99.90;;;;;;5047922;28;20185;-69
2021/09/03 07:04:19;;;;;;;8.68;7.00;;;14.60;99.90;;;;;;5045365;28;20239;-68
2021/09/03 07:06:45;;;;;;;10.77;7.25;;;14.40;99.90;;;;;;5044735;28;20364;-70
2021/09/03 07:09:10;;;;;;;11.30;6.47;;;14.40;99.90;;;;;;5046922;28;20684;-70
2021/09/03 07:11:36;;;;;;;7.68;6.38;;;14.40;99.90;;;;;;5047139;28;20201;-70
2021/09/03 07:14:04;;;;;;;9.85;7.15;;;14.50;99.90;;;;;;5046995;28;20193;-70
2021/09/03 07:16:29;;;;;;;11.30;7.57;;;14.60;99.90;;;;;;5047117;28;20192;-69
2021/09/03 07:18:56;;;;;;;10.88;7.22;;;14.80;99.90;;;;;;5047252;28;20885;-70
2021/09/03 07:21:23;;;;;;;11.77;7.57;;;15.20;99.90;;;;;;5046811;28;20186;-70
2021/09/03 07:23:50;;;;;;;10.98;7.68;;;15.50;99.90;;;;;;5028198;28;20235;-70
2021/09/03 07:26:15;;;;;;;9.40;7.65;;;15.60;99.90;;;;;;5045687;28;20206;-71
2021/09/03 07:28:41;;;;;;;9.32;7.57;;;15.80;99.90;;;;;;5046662;28;20186;-70
2021/09/03 07:31:07;;;;;;;11.60;8.60;;;16.10;99.90;;;;;;5028908;28;20228;-71
2021/09/03 07:33:33;;;;;;;10.65;8.13;;;16.40;99.90;;;;;;5047209;28;20630;-70
2021/09/03 07:56:32;;;;;;;11.73;9.07;;;16.80;99.90;;;;;;5044121;28;20253;-69
2021/09/03 07:58:58;;;;;;;13.90;9.70;;;16.90;99.90;;;;;;5045702;28;20225;-70
2021/09/03 08:01:24;;;;;;;15.07;10.23;;;17.10;99.90;;;;;;5046408;28;21181;-72
2021/09/03 08:03:50;;;;;;;17.73;11.55;;;17.40;99.90;;;;;;5045263;28;20591;-70
2021/09/03 08:06:15;;;;;;;16.33;11.20;;;17.60;99.90;;;;;;5045513;28;20202;-71
2021/09/03 08:08:41;;;;;;;17.58;10.90;;;17.80;99.90;;;;;;5045633;28;20189;-71
2021/09/03 08:11:07;;;;;;;14.70;10.80;;;17.90;99.90;;;;;;5044285;28;20226;-69
2021/09/03 08:13:32;;;;;;;15.02;10.90;;;18.10;99.90;;;;;;5045006;28;20182;-72
2021/09/03 08:15:58;;;;;;;19.65;11.93;;;18.10;99.90;;;;;;5044296;28;20202;-69
2021/09/03 08:18:24;;;;;;;17.88;11.57;;;18.00;99.90;;;;;;5045442;28;20178;-69
2021/09/03 08:20:50;;;;;;;17.38;10.82;;;18.10;99.90;;;;;;5043573;28;20301;-68
2021/09/03 08:23:16;;;;;;;16.73;10.07;;;18.30;99.90;;;;;;5045137;28;20261;-69
2021/09/03 08:25:41;;;;;;;16.67;10.85;;;18.50;99.90;;;;;;5044079;28;20600;-70
2021/09/03 08:28:07;;;;;;;16.58;11.32;;;18.40;99.90;;;;;;5045107;28;21080;-70
2021/09/03 08:30:33;;;;;;;18.73;12.43;;;18.30;99.90;;;;;;5044873;28;20210;-69
2021/09/03 08:32:59;;;;;;;16.70;11.20;;;18.40;99.90;;;;;;5044803;28;20187;-70
2021/09/03 08:35:25;;;;;;;15.57;10.68;;;18.40;99.90;;;;;;5044028;28;20256;-69
2021/09/03 08:37:52;;;;;;;14.50;10.07;;;18.50;99.90;;;;;;5044702;28;20229;-69
2021/09/03 08:40:17;;;;;;;15.80;10.32;;;18.50;99.90;;;;;;5044737;28;20186;-68
2021/09/03 08:42:43;;;;;;;14.57;9.68;;;18.60;99.90;;;;;;5044962;28;20241;-70
2021/09/03 08:45:11;;;;;;;17.48;9.55;;;18.70;99.90;;;;;;5043774;28;20313;-70
2021/09/03 08:47:41;;;;;;;15.43;10.05;;;18.80;99.90;;;;;;5043919;28;20664;-69
2021/09/03 08:50:10;;;;;;;22.67;10.25;;;18.80;99.90;;;;;;5044064;28;20210;-70
2021/09/03 08:52:36;;;;;;;18.08;10.20;;;18.80;99.90;;;;;;5045114;28;20187;-69
2021/09/03 08:55:03;;;;;;;14.75;10.35;;;18.80;99.90;;;;;;5019750;28;20214;-70
2021/09/03 08:57:28;;;;;;;15.43;10.23;;;18.80;99.90;;;;;;5024984;28;20194;-69
2021/09/03 08:59:54;;;;;;;14.15;9.82;;;18.90;99.90;;;;;;5024200;28;20541;-70
2021/09/03 09:02:20;;;;;;;12.38;8.55;;;19.00;99.90;;;;;;5025180;28;20183;-68
2021/09/03 09:04:51;;;;;;;12.75;8.90;;;19.20;99.90;;;;;;5023700;28;20559;-67
2021/09/03 09:07:21;;;;;;;13.68;8.65;;;19.30;99.90;;;;;;5024294;28;20198;-68
2021/09/03 09:10:14;;;;;;;11.55;7.68;;;19.30;99.90;;;;;;5014925;28;20203;-68
2021/09/03 09:16:12;;;;;;;13.20;8.07;;;19.60;99.90;;;;;;5600863;22;20233;-79
2021/09/03 09:18:43;;;;;;;14.02;6.65;;;19.70;99.90;;;;;;5036082;28;20273;-80
2021/09/03 09:21:37;;;;;;;11.05;6.20;;;19.70;99.90;;;;;;5036433;28;20210;-78
2021/09/03 09:24:09;;;;;;;8.80;6.32;;;19.90;99.90;;;;;;5056338;28;20289;-79
2021/09/03 09:26:47;;;;;;;8.10;5.80;;;19.90;99.90;;;;;;5047020;28;20236;-80
2021/09/03 09:29:19;;;;;;;8.10;5.50;;;20.00;99.90;;;;;;5044237;28;20243;-79
2021/09/03 09:31:47;;;;;;;9.55;6.07;;;20.00;99.90;;;;;;5049084;28;20561;-79
2021/09/03 09:34:18;;;;;;;10.32;6.32;;;20.20;99.90;;;;;;5046641;28;20510;-80
2021/09/03 09:36:45;;;;;;;10.13;6.00;;;20.30;99.90;;;;;;5046771;28;20600;-78
2021/09/03 09:39:11;;;;;;;8.05;5.70;;;20.40;99.90;;;;;;5044760;28;20186;-78
2021/09/03 09:41:37;;;;;;;7.35;5.78;;;20.60;99.90;;;;;;5045248;28;20182;-78
2021/09/03 09:44:03;;;;;;;7.85;6.07;;;20.80;99.90;;;;;;5044749;28;20213;-79
2021/09/03 09:46:31;;;;;;;7.18;5.75;;;20.80;99.90;;;;;;5043788;28;20552;-79
2021/09/03 09:49:06;;;;;;;8.82;6.20;;;20.80;99.90;;;;;;5043570;28;20636;-81
2021/09/03 09:51:43;;;;;;;7.03;5.22;;;20.80;99.90;;;;;;5044653;28;20773;-79
2021/09/03 09:54:20;;;;;;;7.60;5.90;;;20.80;99.90;;;;;;5042912;28;20204;-80
2021/09/03 09:56:49;;;;;;;7.18;5.70;;;21.00;99.90;;;;;;5046387;28;20188;-81
2021/09/03 09:59:16;;;;;;;6.65;4.88;;;21.00;99.90;;;;;;5045929;28;20182;-81
2021/09/03 10:01:43;;;;;;;8.82;5.75;;;21.20;99.90;;;;;;5046303;28;20189;-80
2021/09/03 10:04:11;;;;;;;7.57;6.43;;;21.20;99.90;;;;;;5044519;28;20201;-80
2021/09/03 10:06:39;;;;;;;10.10;6.57;;;21.30;99.90;;;;;;5046483;28;20189;-83
2021/09/03 10:09:09;;;;;;;9.60;6.20;;;21.30;99.90;;;;;;5045721;28;20213;-79
2021/09/03 10:11:39;;;;;;;9.25;5.50;;;21.40;99.90;;;;;;5046408;28;20191;-81
2021/09/03 10:14:07;;;;;;;8.63;5.68;;;21.60;99.90;;;;;;5044233;28;20205;-80
2021/09/03 10:16:33;;;;;;;8.00;5.85;;;21.70;99.90;;;;;;5043773;28;20190;-79
2021/09/03 10:19:01;;;;;;;9.07;5.97;;;21.60;99.90;;;;;;5044256;28;20213;-79
2021/09/03 10:21:29;;;;;;;8.85;5.82;;;21.70;99.90;;;;;;5062821;28;20618;-81
2021/09/03 10:24:08;;;;;;;11.15;6.53;;;21.70;99.90;;;;;;5061844;28;20224;-80
2021/09/03 10:26:39;;;;;;;11.93;5.20;;;21.60;99.90;;;;;;5061341;28;20643;-80
2021/09/03 10:29:19;;;;;;;9.27;5.00;;;21.60;99.90;;;;;;5040804;28;20217;-80
2021/09/03 10:32:09;;;;;;;7.82;5.15;;;21.60;99.90;;;;;;5058344;28;20345;-80
2021/09/03 10:34:50;;;;;;;7.45;4.78;;;21.40;99.90;;;;;;5050488;28;20194;-80
2021/09/03 10:37:18;;;;;;;7.97;5.57;;;21.60;99.90;;;;;;5054258;28;20214;-83
2021/09/03 10:40:06;;;;;;;6.93;5.40;;;21.80;99.90;;;;;;5067084;28;20197;-78
2021/09/03 10:42:34;;;;;;;7.70;5.93;;;21.90;99.90;;;;;;5058266;28;20185;-79
2021/09/03 10:45:03;;;;;;;8.55;5.00;;;21.90;99.90;;;;;;5047989;28;20192;-81
2021/09/03 10:47:48;;;;;;;7.63;5.15;;;21.90;99.90;;;;;;5064734;28;20192;-80
2021/09/03 10:50:21;;;;;;;7.82;5.10;;;22.10;99.90;;;;;;5067970;28;20217;-79
2021/09/03 10:53:10;;;;;;;5.50;4.72;;;22.20;99.90;;;;;;5068500;28;20182;-79
2021/09/03 10:55:58;;;;;;;6.30;4.95;;;22.30;99.90;;;;;;5045031;28;20193;-80
2021/09/03 10:58:31;;;;;;;7.88;6.00;;;22.40;99.90;;;;;;5066540;28;20185;-79
2021/09/03 11:01:12;;;;;;;6.47;4.80;;;22.30;99.90;;;;;;5068974;28;20356;-78
2021/09/03 11:03:51;;;;;;;6.40;4.15;;;22.50;99.90;;;;;;5065012;28;20675;-75
2021/09/03 11:06:30;;;;;;;6.50;4.45;;;22.50;99.90;;;;;;5068224;28;20192;-77
2021/09/03 11:09:02;;;;;;;7.05;4.85;;;22.40;99.90;;;;;;5068994;28;20653;-79
2021/09/03 11:11:36;;;;;;;7.78;4.80;;;22.40;99.90;;;;;;5065569;28;20213;-81
2021/09/03 11:14:06;;;;;;;8.98;4.10;;;22.40;99.90;;;;;;5068391;28;20193;-82
2021/09/03 11:16:45;;;;;;;7.72;5.15;;;22.40;99.90;;;;;;5068134;28;20197;-82
2021/09/03 11:19:34;;;;;;;6.50;4.50;;;22.30;99.90;;;;;;5059187;28;20250;-80
2021/09/03 11:22:10;;;;;;;43.83;11.98;;;22.40;99.90;;;;;;5067537;28;20242;-80
2021/09/03 11:24:43;;;;;;;20.70;7.70;;;22.50;99.90;;;;;;5065280;28;20212;-81
2021/09/03 11:27:11;;;;;;;68.93;15.23;;;22.50;99.90;;;;;;5048926;28;20204;-83
2021/09/03 11:30:01;;;;;;;8.40;4.88;;;22.50;99.90;;;;;;5048345;28;20213;-81
2021/09/03 11:32:31;;;;;;;20.52;7.63;;;22.40;99.90;;;;;;5067984;28;20188;-80
2021/09/03 11:35:06;;;;;;;40.25;10.98;;;22.50;99.90;;;;;;5048419;28;20193;-80
2021/09/03 11:37:32;;;;;;;6.63;4.10;;;22.60;99.90;;;;;;5051668;28;20192;-79
2021/09/03 11:40:03;;;;;;;6.63;3.83;;;22.50;99.90;;;;;;5051200;28;20210;-81
2021/09/03 11:42:31;;;;;;;6.03;4.10;;;22.50;99.90;;;;;;5069307;28;20182;-79
2021/09/03 11:45:14;;;;;;;6.57;4.85;;;22.50;99.90;;;;;;5047143;28;20194;-82
2021/09/03 11:47:53;;;;;;;4.63;3.58;;;22.60;99.90;;;;;;5046904;28;20344;-82
2021/09/03 11:50:37;;;;;;;6.15;4.15;;;22.70;99.90;;;;;;5063718;28;20679;-80
2021/09/03 11:53:06;;;;;;;8.82;5.07;;;22.90;99.90;;;;;;5049552;28;20194;-80
2021/09/03 11:55:34;;;;;;;7.88;4.65;;;22.70;99.90;;;;;;5052319;28;20190;-79
2021/09/03 11:58:10;;;;;;;8.43;5.00;;;22.70;99.90;;;;;;5070426;28;21122;-77
2021/09/03 12:00:38;;;;;;;6.60;5.40;;;22.70;99.90;;;;;;5048683;28;20300;-79
2021/09/03 12:03:11;;;;;;;7.38;5.32;;;22.80;99.90;;;;;;5068527;28;20213;-79
2021/09/03 12:05:45;;;;;;;6.05;5.05;;;22.70;99.90;;;;;;5050741;28;20190;-80
2021/09/03 12:08:16;;;;;;;8.88;4.85;;;22.70;99.90;;;;;;5051721;28;20189;-78
2021/09/03 12:10:57;;;;;;;6.03;4.65;;;22.80;99.90;;;;;;5048783;28;20209;-79
2021/09/03 12:13:30;;;;;;;7.97;5.03;;;23.00;99.90;;;;;;5062681;28;20217;-79
2021/09/03 12:16:02;;;;;;;7.85;5.25;;;23.00;99.90;;;;;;5065708;28;20229;-78
2021/09/03 12:18:35;;;;;;;18.85;6.10;;;22.90;99.90;;;;;;5050748;28;20173;-78
2021/09/03 12:21:10;;;;;;;8.18;4.85;;;23.10;99.90;;;;;;5067993;28;20640;-79
2021/09/03 12:23:42;;;;;;;7.82;5.32;;;23.20;99.90;;;;;;5067291;28;20185;-78
2021/09/03 12:26:17;;;;;;;6.65;4.78;;;23.20;99.90;;;;;;5065420;28;20189;-78
2021/09/03 12:28:48;;;;;;;9.38;5.80;;;23.20;99.90;;;;;;5046962;28;20176;-79
2021/09/03 12:31:19;;;;;;;7.30;5.38;;;23.10;99.90;;;;;;5063563;28;20318;-79
2021/09/03 12:34:00;;;;;;;8.50;5.40;;;23.10;99.90;;;;;;5044541;28;20742;-79
2021/09/03 12:36:37;;;;;;;10.60;5.63;;;23.30;99.90;;;;;;5062406;28;20314;-79
2021/09/03 12:39:11;;;;;;;7.88;5.45;;;23.30;99.90;;;;;;5061962;28;20195;-81
2021/09/03 12:41:39;;;;;;;10.52;5.88;;;23.20;99.90;;;;;;5061157;28;20184;-79
2021/09/03 12:44:28;;;;;;;7.70;5.15;;;23.20;99.90;;;;;;5061781;28;20408;-79
2021/09/03 12:47:00;;;;;;;7.68;5.20;;;23.20;99.90;;;;;;5061828;28;20247;-79
2021/09/03 12:49:28;;;;;;;8.90;7.28;;;23.30;99.90;;;;;;5045520;28;20213;-79
2021/09/03 12:52:02;;;;;;;8.35;6.50;;;23.30;99.90;;;;;;5043667;28;20916;-80
2021/09/03 12:54:32;;;;;;;9.48;6.82;;;23.20;99.90;;;;;;5063262;28;20260;-79
2021/09/03 12:56:57;;;;;;;9.48;6.45;;;23.30;99.90;;;;;;5044355;28;20190;-79
2021/09/03 12:59:23;;;;;;;7.88;5.63;;;23.50;99.90;;;;;;5060920;28;20452;-79
2021/09/03 13:01:50;;;;;;;9.93;5.57;;;23.50;99.90;;;;;;5047078;28;20177;-79
2021/09/03 13:04:36;;;;;;;7.38;5.53;;;23.50;99.90;;;;;;5062375;28;20499;-81
2021/09/03 13:07:01;;;;;;;6.63;5.88;;;23.60;99.90;;;;;;5062718;28;20625;-79
2021/09/03 13:09:29;;;;;;;7.32;4.78;;;23.80;99.90;;;;;;5062800;28;20299;-79
2021/09/03 13:11:55;;;;;;;6.63;4.13;;;23.80;99.90;;;;;;5061604;28;20230;-79